Time;durP1;ratioP1;P1;durP2;ratioP2;P2;SDS_P1;SDS_P2;PMS_P1;PMS_P2;Temp;Humidity;BMP_temperature;BMP_pressure;BME280_temperature;BME280_humidity;BME280_pressure;Samples;Min_cycle;Max_cycle;Signal;HPM_P1;HPM_P2
2021/10/26 00:00:53;;;;;;;21.52;12.75;;;;;;;11.56;68.58;99315.25;5054327;28;20499;-51
2021/10/26 00:03:19;;;;;;;17.05;11.57;;;;;;;11.57;68.72;99310.81;5054235;28;20045;-51
2021/10/26 00:05:44;;;;;;;21.52;12.10;;;;;;;11.61;68.82;99296.28;5054282;28;20025;-51
2021/10/26 00:08:10;;;;;;;16.83;11.32;;;;;;;11.75;68.26;99302.44;5036178;28;20028;-51
2021/10/26 00:10:36;;;;;;;12.88;11.48;;;;;;;11.74;67.81;99304.25;5054103;28;20055;-50
2021/10/26 00:13:01;;;;;;;13.85;11.55;;;;;;;11.71;68.20;99301.19;5052716;28;20068;-51
2021/10/26 00:15:27;;;;;;;14.98;10.70;;;;;;;11.74;68.02;99296.34;5054010;28;20024;-52
2021/10/26 00:17:53;;;;;;;21.23;12.80;;;;;;;11.78;68.26;99297.59;5054042;28;20622;-51
2021/10/26 00:20:19;;;;;;;13.63;10.23;;;;;;;11.91;67.68;99296.09;5052595;28;20498;-50
2021/10/26 00:22:45;;;;;;;24.23;12.60;;;;;;;11.85;67.69;99302.91;5053928;28;20025;-51
2021/10/26 00:25:10;;;;;;;17.42;11.25;;;;;;;11.89;67.78;99298.94;5035904;28;20761;-50
2021/10/26 00:27:36;;;;;;;18.20;11.23;;;;;;;11.96;67.13;99298.94;5053828;28;20052;-51
2021/10/26 00:30:04;;;;;;;13.07;10.45;;;;;;;11.83;67.38;99306.72;5053971;28;20025;-51
2021/10/26 00:32:30;;;;;;;13.32;9.85;;;;;;;11.65;67.54;99302.78;5053609;28;20021;-51
2021/10/26 00:34:56;;;;;;;16.30;11.60;;;;;;;11.50;68.14;99296.81;5053508;28;20082;-51
2021/10/26 00:37:21;;;;;;;17.20;13.05;;;;;;;11.40;68.49;99307.66;5053551;28;20394;-51
2021/10/26 00:39:47;;;;;;;15.13;11.38;;;;;;;11.31;68.40;99304.34;5052261;28;20022;-51
2021/10/26 00:42:13;;;;;;;15.13;12.45;;;;;;;11.25;69.18;99305.09;5053537;28;20040;-50
2021/10/26 00:44:39;;;;;;;14.23;10.55;;;;;;;11.28;68.84;99301.28;5053481;28;20027;-51
2021/10/26 00:47:04;;;;;;;18.33;12.18;;;;;;;11.36;68.98;99307.19;5035475;28;20119;-50
2021/10/26 00:49:30;;;;;;;16.85;12.38;;;;;;;11.49;68.32;99303.06;5053425;28;20166;-51
2021/10/26 00:51:57;;;;;;;18.13;12.38;;;;;;;11.63;68.47;99299.53;5053010;28;20088;-51
2021/10/26 00:54:24;;;;;;;17.58;12.98;;;;;;;11.85;67.98;99297.66;5035361;28;20514;-51
2021/10/26 00:56:51;;;;;;;18.42;12.27;;;;;;;12.02;67.27;99298.19;5035315;28;20031;-51
2021/10/26 00:59:17;;;;;;;14.57;10.50;;;;;;;12.08;66.61;99297.41;5035309;28;20048;-50
2021/10/26 01:01:43;;;;;;;16.40;11.95;;;;;;;12.04;66.26;99295.34;5053106;28;20483;-51
2021/10/26 01:04:09;;;;;;;17.02;11.32;;;;;;;12.00;66.50;99302.81;5053153;28;20067;-51
2021/10/26 01:06:36;;;;;;;15.18;11.15;;;;;;;12.02;66.50;99303.44;5053091;28;20021;-50
2021/10/26 01:09:05;;;;;;;14.35;12.38;;;;;;;11.99;66.42;99306.44;5052967;28;20028;-51
2021/10/26 01:11:33;;;;;;;19.42;13.55;;;;;;;11.99;66.75;99303.81;5052914;28;20025;-51
2021/10/26 01:14:00;;;;;;;14.90;12.02;;;;;;;12.11;66.97;99306.72;5052871;28;20036;-51
2021/10/26 01:16:26;;;;;;;23.42;13.80;;;;;;;12.19;66.94;99303.91;5052858;28;20079;-51
2021/10/26 01:18:52;;;;;;;17.13;12.02;;;;;;;12.19;67.53;99303.91;5051530;28;20029;-50
2021/10/26 01:21:19;;;;;;;16.60;11.65;;;;;;;12.12;67.71;99308.34;5052755;28;20025;-51
2021/10/26 01:23:44;;;;;;;14.63;11.82;;;;;;;12.03;67.81;99304.25;5052718;28;20047;-50
2021/10/26 01:26:10;;;;;;;13.55;11.55;;;;;;;11.97;68.15;99306.66;5052639;28;20535;-52
2021/10/26 01:28:36;;;;;;;20.52;11.70;;;;;;;11.94;68.24;99306.22;5052643;28;20467;-51
2021/10/26 01:31:03;;;;;;;16.63;12.63;;;;;;;11.94;68.33;99307.03;5052535;28;20024;-51
2021/10/26 01:33:30;;;;;;;17.73;12.23;;;;;;;11.96;68.11;99298.94;5052524;28;20086;-51
2021/10/26 01:35:56;;;;;;;15.55;12.00;;;;;;;12.02;68.10;99302.63;5052545;28;20017;-51
2021/10/26 01:38:24;;;;;;;18.90;13.38;;;;;;;12.17;67.54;99306.78;5051081;28;20025;-51
2021/10/26 01:40:50;;;;;;;17.88;10.88;;;;;;;12.30;67.51;99300.75;5051136;28;20027;-51
2021/10/26 01:43:16;;;;;;;19.98;13.43;;;;;;;12.41;67.00;99296.72;5052389;28;20107;-51
2021/10/26 01:45:42;;;;;;;17.00;11.80;;;;;;;12.51;67.25;99304.25;5051484;28;20541;-51
2021/10/26 01:48:07;;;;;;;17.92;12.48;;;;;;;12.61;66.49;99298.63;5052293;28;20021;-51
2021/10/26 01:50:33;;;;;;;19.85;12.52;;;;;;;12.54;66.66;99288.88;5052298;28;20021;-51
2021/10/26 01:52:59;;;;;;;18.13;12.70;;;;;;;12.62;66.39;99292.34;5051665;28;20065;-51
2021/10/26 01:55:25;;;;;;;16.42;11.07;;;;;;;12.64;65.87;99290.34;5052198;28;20024;-51
2021/10/26 01:57:51;;;;;;;16.00;11.25;;;;;;;12.53;65.87;99299.59;5052174;28;20129;-50
2021/10/26 02:00:20;;;;;;;18.52;11.45;;;;;;;12.47;66.11;99289.88;5052320;28;20021;-50
2021/10/26 02:02:47;;;;;;;17.42;11.52;;;;;;;12.45;66.07;99294.50;5052286;28;20032;-50
2021/10/26 02:05:14;;;;;;;18.33;12.15;;;;;;;12.40;66.22;99295.13;5050719;28;20406;-51
2021/10/26 02:07:40;;;;;;;18.38;12.18;;;;;;;12.45;66.66;99303.22;5052012;28;20025;-51
2021/10/26 02:10:07;;;;;;;15.63;11.52;;;;;;;12.52;66.66;99305.91;5052142;28;20395;-51
2021/10/26 02:12:34;;;;;;;19.02;11.25;;;;;;;12.61;66.40;99306.53;5050552;28;20102;-51
2021/10/26 02:15:00;;;;;;;14.75;10.90;;;;;;;12.67;65.56;99303.09;5051848;28;20437;-51
2021/10/26 02:17:26;;;;;;;13.95;11.45;;;;;;;12.59;65.92;99298.81;5051867;28;20108;-51
2021/10/26 02:19:52;;;;;;;15.10;11.43;;;;;;;12.52;65.80;99303.25;5051815;28;20048;-51
2021/10/26 02:22:18;;;;;;;14.65;10.50;;;;;;;12.47;66.17;99301.19;5051740;28;20108;-51
2021/10/26 02:24:44;;;;;;;18.02;11.43;;;;;;;12.44;66.28;99306.06;5033899;28;20132;-50
2021/10/26 02:27:11;;;;;;;17.30;11.45;;;;;;;12.43;66.15;99299.97;5033808;28;20074;-51
2021/10/26 02:29:36;;;;;;;16.02;11.40;;;;;;;12.42;66.17;99298.34;5051726;28;20029;-51
2021/10/26 02:32:03;;;;;;;15.98;11.85;;;;;;;12.39;66.13;99304.84;5051572;28;20032;-51
2021/10/26 02:34:29;;;;;;;15.65;11.88;;;;;;;12.36;66.66;99309.69;5051647;28;20017;-51
2021/10/26 02:36:55;;;;;;;17.88;10.95;;;;;;;12.36;66.86;99310.47;5051573;28;20583;-50
2021/10/26 02:39:21;;;;;;;16.10;12.07;;;;;;;12.41;66.54;99306.44;5051625;28;20029;-51
2021/10/26 02:41:47;;;;;;;15.70;11.40;;;;;;;12.46;66.57;99301.41;5050263;28;20036;-51
2021/10/26 02:44:12;;;;;;;17.67;11.02;;;;;;;12.53;66.51;99308.31;5051572;28;20021;-51
2021/10/26 02:46:38;;;;;;;16.25;11.75;;;;;;;12.57;66.15;99308.72;5051539;28;20538;-51
2021/10/26 02:49:04;;;;;;;13.40;11.55;;;;;;;12.59;66.35;99307.50;5033598;28;20395;-50
2021/10/26 02:51:30;;;;;;;20.35;12.70;;;;;;;12.59;65.89;99306.72;5046544;28;20030;-50
2021/10/26 02:53:56;;;;;;;16.70;11.07;;;;;;;12.56;66.18;99301.84;5031545;28;20040;-51
2021/10/26 02:56:21;;;;;;;17.05;12.40;;;;;;;12.56;66.39;99307.94;5030844;28;20108;-50
2021/10/26 02:58:47;;;;;;;13.90;10.80;;;;;;;12.61;66.19;99304.69;5034264;28;20103;-51
2021/10/26 03:01:13;;;;;;;14.98;11.63;;;;;;;12.57;66.20;99303.47;5034227;28;20049;-51
2021/10/26 03:03:39;;;;;;;22.98;12.30;;;;;;;12.51;66.12;99294.53;5034199;28;20518;-51
2021/10/26 03:06:05;;;;;;;15.15;11.80;;;;;;;12.44;66.51;99304.25;5035389;28;20105;-50
2021/10/26 03:08:32;;;;;;;13.50;11.43;;;;;;;12.36;66.97;99309.69;5035415;28;20053;-50
2021/10/26 03:10:58;;;;;;;16.10;10.80;;;;;;;12.32;66.77;99306.63;5035321;28;20021;-50
2021/10/26 03:13:24;;;;;;;17.02;11.60;;;;;;;12.28;66.70;99315.91;5033926;28;20025;-50
2021/10/26 03:15:50;;;;;;;16.60;12.23;;;;;;;12.21;67.27;99317.69;5035250;28;20037;-50
2021/10/26 03:18:15;;;;;;;18.27;10.93;;;;;;;12.16;67.12;99310.38;5033969;28;20033;-51
2021/10/26 03:20:41;;;;;;;15.80;10.05;;;;;;;12.11;67.22;99317.25;5033906;28;20026;-51
2021/10/26 03:23:08;;;;;;;17.75;11.25;;;;;;;12.05;67.66;99318.00;5035188;28;20112;-51
2021/10/26 03:25:34;;;;;;;27.50;12.48;;;;;;;11.99;68.04;99315.16;5033822;28;20033;-51
2021/10/26 03:28:00;;;;;;;16.73;10.90;;;;;;;12.02;68.18;99310.53;5033731;28;20038;-51
2021/10/26 03:30:26;;;;;;;15.77;10.98;;;;;;;12.03;67.87;99320.84;5034976;28;20029;-51
2021/10/26 03:32:52;;;;;;;19.25;11.85;;;;;;;11.99;67.93;99316.97;5034892;28;20032;-51
2021/10/26 03:35:18;;;;;;;14.75;10.75;;;;;;;11.96;68.28;99315.53;5034844;28;20022;-51
2021/10/26 03:37:44;;;;;;;19.20;11.10;;;;;;;11.97;68.44;99321.59;5035105;28;20434;-51
2021/10/26 03:40:12;;;;;;;16.27;11.23;;;;;;;11.94;68.70;99322.81;5034779;28;20059;-51
2021/10/26 03:42:38;;;;;;;15.10;10.85;;;;;;;11.93;68.60;99323.00;5034845;28;20040;-51
2021/10/26 03:45:05;;;;;;;17.25;11.10;;;;;;;11.91;68.45;99325.84;5034688;28;20155;-51
2021/10/26 03:47:31;;;;;;;17.58;11.93;;;;;;;11.93;68.70;99326.47;5033349;28;20034;-51
2021/10/26 03:49:57;;;;;;;18.98;12.02;;;;;;;11.92;68.58;99324.03;5034671;28;20029;-51
2021/10/26 03:52:23;;;;;;;21.60;12.32;;;;;;;11.88;68.78;99322.75;5047000;28;20079;-50
2021/10/26 03:54:50;;;;;;;21.17;12.75;;;;;;;11.92;68.78;99324.03;5054475;28;20047;-51
2021/10/26 03:57:18;;;;;;;18.15;11.55;;;;;;;11.93;68.41;99330.91;5053112;28;20025;-51
2021/10/26 03:59:44;;;;;;;19.85;11.98;;;;;;;11.88;68.79;99328.81;5054394;28;20108;-51
2021/10/26 04:02:12;;;;;;;19.27;10.85;;;;;;;11.91;68.60;99325.84;5054260;28;20498;-52
2021/10/26 04:04:39;;;;;;;22.60;11.43;;;;;;;11.95;68.71;99323.63;5054218;28;20067;-51
2021/10/26 04:07:08;;;;;;;18.70;11.38;;;;;;;11.85;68.49;99325.75;5020182;28;20062;-51
2021/10/26 04:09:52;;;;;;;16.13;11.68;;;;;;;11.75;69.02;99340.06;5053306;28;20099;-51
2021/10/26 04:14:47;;;;;;;29.55;16.38;;;;;;;11.75;69.59;99339.25;5054056;28;20054;-51
2021/10/26 04:17:14;;;;;;;20.92;13.60;;;;;;;11.99;69.50;99340.63;5054047;28;20120;-51
2021/10/26 04:19:40;;;;;;;19.33;11.65;;;;;;;12.16;68.52;99336.69;5019616;28;20079;-51
2021/10/26 04:22:07;;;;;;;25.73;14.25;;;;;;;12.23;68.29;99343.81;5053845;28;20032;-51
2021/10/26 04:24:34;;;;;;;28.20;16.45;;;;;;;12.22;68.37;99340.38;5053907;28;20086;-51
2021/10/26 04:26:59;;;;;;;23.42;14.70;;;;;;;12.06;68.27;99327.53;5053779;28;20036;-50
2021/10/26 04:29:25;;;;;;;23.48;13.35;;;;;;;12.01;68.80;99337.81;5035942;28;20120;-51
2021/10/26 04:31:51;;;;;;;23.25;14.10;;;;;;;11.99;68.94;99340.63;5053676;28;20390;-50
2021/10/26 04:34:17;;;;;;;20.23;11.95;;;;;;;11.99;68.87;99340.63;5053710;28;20108;-51
2021/10/26 04:36:42;;;;;;;28.33;14.68;;;;;;;11.84;68.81;99340.72;5053659;28;20029;-51
2021/10/26 04:39:08;;;;;;;34.10;14.38;;;;;;;11.83;69.24;99354.06;5053633;28;20487;-51
2021/10/26 04:41:34;;;;;;;24.15;12.68;;;;;;;11.80;69.47;99347.38;5035816;28;20096;-51
2021/10/26 04:44:02;;;;;;;22.48;11.88;;;;;;;11.76;69.36;99346.13;5035630;28;20064;-51
2021/10/26 04:46:33;;;;;;;21.58;12.73;;;;;;;11.78;69.86;99342.31;5053452;28;20020;-51
2021/10/26 04:49:00;;;;;;;28.25;13.98;;;;;;;11.77;69.57;99347.75;5053787;28;20029;-51
2021/10/26 04:51:25;;;;;;;21.17;13.65;;;;;;;11.66;70.08;99348.28;5053065;28;20060;-51
2021/10/26 04:53:51;;;;;;;22.45;11.65;;;;;;;11.61;70.57;99359.38;5053339;28;20022;-51
2021/10/26 04:56:17;;;;;;;21.42;13.23;;;;;;;11.58;70.34;99359.75;5053600;28;20064;-51
2021/10/26 04:58:42;;;;;;;14.65;10.95;;;;;;;11.48;70.39;99361.91;5053234;28;20025;-50
2021/10/26 05:01:08;;;;;;;18.00;10.93;;;;;;;11.40;70.65;99365.47;5053204;28;20024;-51
2021/10/26 05:03:34;;;;;;;23.30;11.38;;;;;;;11.32;70.98;99360.34;5035283;28;20378;-51
2021/10/26 05:06:02;;;;;;;19.20;13.00;;;;;;;11.26;70.85;99361.91;5035204;28;20033;-51
2021/10/26 05:08:28;;;;;;;22.33;13.27;;;;;;;11.17;70.88;99357.78;5053030;28;20045;-51
2021/10/26 05:10:53;;;;;;;20.58;13.10;;;;;;;11.05;71.29;99359.28;5053009;28;20158;-51
2021/10/26 05:13:19;;;;;;;17.13;12.00;;;;;;;10.94;71.51;99356.13;5052882;28;20483;-51
2021/10/26 05:15:48;;;;;;;17.98;13.32;;;;;;;10.81;71.84;99361.25;5052893;28;20528;-51
2021/10/26 05:18:15;;;;;;;22.55;13.50;;;;;;;10.67;72.18;99359.47;5052862;28;20126;-50
2021/10/26 05:20:43;;;;;;;20.75;14.70;;;;;;;10.54;72.72;99358.31;5052777;28;20110;-51
2021/10/26 05:23:10;;;;;;;16.83;13.45;;;;;;;10.45;72.86;99355.97;5052759;28;20021;-51
2021/10/26 05:25:36;;;;;;;21.35;12.82;;;;;;;10.41;73.35;99359.97;5052738;28;20099;-51
2021/10/26 05:28:02;;;;;;;16.00;12.40;;;;;;;10.33;73.40;99361.66;5052655;28;20040;-50
2021/10/26 05:30:27;;;;;;;21.95;13.65;;;;;;;10.33;73.71;99366.13;5052717;28;20029;-51
2021/10/26 05:32:53;;;;;;;21.23;13.95;;;;;;;10.32;74.01;99360.06;5052481;28;20021;-50
2021/10/26 05:35:19;;;;;;;19.83;13.32;;;;;;;10.39;73.52;99365.38;5052508;28;20032;-51
2021/10/26 05:37:45;;;;;;;20.23;14.15;;;;;;;10.35;73.43;99372.78;5034640;28;20398;-50
2021/10/26 05:40:11;;;;;;;17.48;13.18;;;;;;;10.31;73.73;99371.53;5052460;28;20025;-51
2021/10/26 05:42:37;;;;;;;23.50;14.20;;;;;;;10.20;74.24;99367.53;5052446;28;20078;-51
2021/10/26 05:45:04;;;;;;;26.38;14.80;;;;;;;10.19;74.58;99365.09;5052276;28;20102;-50
2021/10/26 05:47:30;;;;;;;22.38;14.48;;;;;;;10.30;74.35;99369.91;5052332;28;20025;-50
2021/10/26 05:49:56;;;;;;;40.38;15.18;;;;;;;10.29;74.42;99367.44;5052236;28;20029;-50
2021/10/26 05:52:22;;;;;;;23.52;14.02;;;;;;;10.28;73.90;99371.03;5051930;28;20040;-51
2021/10/26 05:54:48;;;;;;;28.13;13.95;;;;;;;10.15;74.27;99369.88;5052174;28;20041;-51
2021/10/26 05:57:13;;;;;;;26.92;14.77;;;;;;;10.05;74.65;99366.69;5052131;28;20056;-51
2021/10/26 05:59:42;;;;;;;28.25;15.80;;;;;;;9.97;75.29;99364.97;5052454;28;20079;-50
2021/10/26 06:02:08;;;;;;;19.98;13.75;;;;;;;9.98;75.35;99371.06;5052063;28;20026;-50
2021/10/26 06:04:34;;;;;;;21.95;13.23;;;;;;;9.96;75.63;99375.63;5052044;28;20498;-51
2021/10/26 06:07:00;;;;;;;31.25;15.82;;;;;;;9.98;75.80;99377.09;5051974;28;20108;-50
2021/10/26 06:09:29;;;;;;;28.90;14.77;;;;;;;10.16;75.10;99375.91;5050708;28;20111;-50
2021/10/26 06:11:57;;;;;;;25.25;15.35;;;;;;;10.25;74.99;99380.09;5050784;28;20406;-50
2021/10/26 06:14:22;;;;;;;22.80;13.02;;;;;;;10.35;74.31;99385.09;5051943;28;20048;-51
2021/10/26 06:16:48;;;;;;;24.35;13.95;;;;;;;10.29;73.95;99383.19;5033835;28;20029;-50
2021/10/26 06:19:15;;;;;;;20.35;14.75;;;;;;;10.16;74.31;99386.41;5034012;28;20017;-51
2021/10/26 06:21:40;;;;;;;27.48;15.13;;;;;;;10.02;74.79;99382.81;5050507;28;20455;-50
2021/10/26 06:24:06;;;;;;;24.88;13.55;;;;;;;10.03;74.79;99381.81;5034025;28;20106;-51
2021/10/26 06:26:32;;;;;;;21.70;13.00;;;;;;;10.05;74.71;99377.19;5051799;28;20029;-51
2021/10/26 06:28:59;;;;;;;26.95;18.23;;;;;;;10.04;74.11;99377.38;5051619;28;20021;-51
2021/10/26 06:31:25;;;;;;;23.83;16.70;;;;;;;10.01;74.38;99378.53;5050154;28;20502;-50
2021/10/26 06:33:52;;;;;;;28.27;17.10;;;;;;;10.00;74.18;99397.91;5050283;28;20399;-51
2021/10/26 06:36:17;;;;;;;40.15;17.73;;;;;;;10.00;74.24;99397.91;5051863;28;20391;-51
2021/10/26 06:38:43;;;;;;;23.50;14.57;;;;;;;10.20;74.31;99393.75;5051652;28;20036;-50
2021/10/26 06:41:09;;;;;;;15.48;13.85;;;;;;;10.50;74.08;99396.41;5051568;28;20108;-51
2021/10/26 06:43:36;;;;;;;30.52;13.57;;;;;;;11.04;72.78;99405.72;5051600;28;20036;-51
2021/10/26 06:46:03;;;;;;;35.55;13.43;;;;;;;11.68;71.03;99402.31;5051492;28;20063;-51
2021/10/26 06:48:29;;;;;;;22.90;12.35;;;;;;;12.16;69.05;99404.31;5033615;28;20021;-51
2021/10/26 06:50:54;;;;;;;22.75;13.18;;;;;;;12.60;67.60;99405.78;5033352;28;20046;-50
2021/10/26 06:53:22;;;;;;;26.58;14.93;;;;;;;13.09;66.48;99411.81;5051361;28;20086;-51
2021/10/26 06:55:49;;;;;;;26.73;13.40;;;;;;;13.36;64.05;99405.63;5051344;28;20021;-51
2021/10/26 06:58:16;;;;;;;18.70;12.27;;;;;;;13.47;63.76;99417.41;5051372;28;20028;-51
2021/10/26 07:00:45;;;;;;;18.75;12.68;;;;;;;13.36;63.14;99421.47;5051687;28;20028;-51
2021/10/26 07:03:11;;;;;;;22.73;12.93;;;;;;;13.18;63.54;99422.00;5051388;28;20130;-51
2021/10/26 07:05:38;;;;;;;25.40;14.18;;;;;;;12.89;64.03;99432.84;5051656;28;20502;-51
2021/10/26 07:08:04;;;;;;;25.63;13.20;;;;;;;12.99;65.06;99428.00;5050021;28;20071;-51
2021/10/26 07:10:30;;;;;;;22.88;12.18;;;;;;;13.91;63.44;99439.75;5050000;28;20029;-51
2021/10/26 07:12:55;;;;;;;22.48;11.18;;;;;;;14.77;60.54;99441.47;5051241;28;20368;-51
2021/10/26 07:15:22;;;;;;;23.77;11.82;;;;;;;15.24;58.28;99443.91;5033316;28;20031;-51
2021/10/26 07:17:48;;;;;;;29.92;12.65;;;;;;;15.47;57.39;99445.19;5033351;28;20136;-51
2021/10/26 07:20:16;;;;;;;46.60;13.60;;;;;;;15.27;57.27;99454.06;5051217;28;20025;-52
2021/10/26 07:22:50;;;;;;;26.52;11.55;;;;;;;15.01;58.49;99455.00;5051508;28;20039;-51
2021/10/26 07:25:16;;;;;;;24.70;12.02;;;;;;;14.88;58.34;99455.03;5033337;28;20033;-50
2021/10/26 07:27:42;;;;;;;31.50;13.27;;;;;;;14.81;58.50;99455.06;5051165;28;20036;-51
2021/10/26 07:30:10;;;;;;;32.03;13.02;;;;;;;14.81;58.68;99451.59;5051127;28;20029;-51
2021/10/26 07:32:38;;;;;;;21.42;11.43;;;;;;;14.85;58.08;99458.91;5051074;28;20024;-51
2021/10/26 07:35:05;;;;;;;30.67;11.90;;;;;;;15.05;57.82;99464.13;5050904;28;20561;-50
2021/10/26 07:37:46;;;;;;;21.48;14.02;;;;;;;15.38;57.06;99466.59;5033159;28;20581;-51
2021/10/26 07:40:13;;;;;;;22.23;14.15;;;;;;;15.31;56.69;99465.84;5051144;28;20079;-51
2021/10/26 07:42:40;;;;;;;24.48;12.40;;;;;;;15.11;57.24;99473.88;5051075;28;20105;-51
2021/10/26 07:45:07;;;;;;;31.20;13.43;;;;;;;15.03;57.73;99471.47;5054193;28;20052;-51
2021/10/26 07:47:34;;;;;;;49.20;15.38;;;;;;;15.31;57.35;99472.94;5054664;28;20028;-51
2021/10/26 07:50:01;;;;;;;163.93;19.23;;;;;;;15.68;57.37;99468.66;5054546;28;20040;-50
2021/10/26 07:52:27;;;;;;;33.25;13.55;;;;;;;16.47;55.74;99466.38;5049650;28;20496;-51
2021/10/26 07:54:53;;;;;;;196.85;21.05;;;;;;;17.35;53.60;99467.00;5034596;28;20045;-51
2021/10/26 07:57:23;;;;;;;413.08;37.08;;;;;;;18.15;51.56;99466.63;5034496;28;20108;-51
2021/10/26 07:59:50;;;;;;;456.30;42.22;;;;;;;18.85;49.69;99462.28;5034485;28;20068;-51
2021/10/26 08:02:16;;;;;;;193.77;24.35;;;;;;;19.45;48.08;99471.69;5034468;28;20030;-51
2021/10/26 08:04:45;;;;;;;249.85;27.77;;;;;;;19.92;47.00;99465.28;5034411;28;20510;-49
2021/10/26 08:07:12;;;;;;;179.02;23.35;;;;;;;20.28;46.65;99466.66;5034318;28;20376;-48
2021/10/26 08:09:38;;;;;;;40.97;13.95;;;;;;;20.74;45.73;99471.81;5034284;28;20025;-49
2021/10/26 08:12:05;;;;;;;33.58;14.73;;;;;;;21.32;44.52;99466.88;5034187;28;20033;-49
2021/10/26 08:14:31;;;;;;;63.65;14.52;;;;;;;22.09;43.95;99463.03;5034312;28;20032;-49
2021/10/26 08:16:57;;;;;;;63.83;14.75;;;;;;;22.82;41.88;99466.91;5034217;28;20033;-49
2021/10/26 08:19:23;;;;;;;121.75;17.25;;;;;;;23.60;41.20;99466.06;5034198;28;20026;-49
2021/10/26 08:21:49;;;;;;;69.30;13.82;;;;;;;23.93;40.35;99460.19;5034035;28;20025;-50
2021/10/26 08:24:19;;;;;;;54.45;12.68;;;;;;;24.15;39.58;99461.78;5032687;28;20068;-49
2021/10/26 08:26:47;;;;;;;50.45;12.70;;;;;;;24.24;39.33;99462.03;5033967;28;20036;-48
2021/10/26 08:31:47;;;;;;;46.42;11.98;;;;;;;23.82;39.90;99453.22;5034084;28;20613;-48
2021/10/26 08:37:12;;;;;;;28.17;10.25;;;;;;;25.70;37.64;99454.66;5025166;28;20045;-49
2021/10/26 08:39:41;;;;;;;66.35;11.95;;;;;;;26.50;35.77;99459.56;5034366;28;20099;-49
2021/10/26 08:42:12;;;;;;;29.17;9.38;;;;;;;26.20;36.02;99454.47;5033619;28;20116;-50
2021/10/26 08:44:38;;;;;;;86.13;12.15;;;;;;;26.21;36.39;99456.91;5033656;28;20026;-49
2021/10/26 08:47:04;;;;;;;23.55;9.15;;;;;;;26.44;35.16;99455.31;5033505;28;20021;-49
2021/10/26 08:49:32;;;;;;;111.13;14.00;;;;;;;26.27;35.88;99457.66;5033566;28;20033;-49
2021/10/26 08:52:00;;;;;;;17.88;8.85;;;;;;;26.71;34.63;99453.94;5042425;28;20098;-49
2021/10/26 08:54:25;;;;;;;36.15;9.25;;;;;;;26.93;34.81;99458.00;5035073;28;20134;-49
2021/10/26 08:56:51;;;;;;;29.35;9.80;;;;;;;27.74;33.67;99453.28;5053265;28;20067;-49
2021/10/26 08:59:21;;;;;;;16.27;8.18;;;;;;;28.38;32.50;99450.84;5053241;28;20021;-49
2021/10/26 09:01:52;;;;;;;57.60;9.73;;;;;;;28.52;32.39;99450.06;5053209;28;20078;-50
2021/10/26 09:04:19;;;;;;;28.58;9.07;;;;;;;28.40;32.07;99443.22;5053239;28;20514;-50
2021/10/26 09:06:51;;;;;;;41.92;9.93;;;;;;;28.06;32.51;99449.81;5053086;28;20507;-49
2021/10/26 09:09:24;;;;;;;53.08;10.23;;;;;;;27.55;33.00;99452.53;5053158;28;20025;-49
2021/10/26 09:17:51;;;;;;;32.33;9.80;;;;;;;27.03;33.51;99449.78;5011113;28;20076;-50
2021/10/26 09:20:22;;;;;;;29.30;8.95;;;;;;;26.06;34.90;99454.38;5011030;28;20045;-49
2021/10/26 09:22:57;;;;;;;22.50;8.43;;;;;;;26.18;35.16;99448.59;5011076;28;20030;-49
2021/10/26 09:25:38;;;;;;;27.90;8.38;;;;;;;25.89;35.48;99452.06;5010953;28;20470;-49
2021/10/26 09:28:14;;;;;;;18.63;7.15;;;;;;;25.34;36.98;99448.75;5010995;28;20602;-49
2021/10/26 09:30:57;;;;;;;21.00;5.75;;;;;;;25.98;36.05;99445.03;5010811;28;20566;-48
2021/10/26 09:33:38;;;;;;;31.52;6.55;;;;;;;26.75;35.25;99448.81;5010701;28;20062;-50
2021/10/26 09:36:23;;;;;;;19.25;5.78;;;;;;;27.28;34.32;99438.63;5010729;28;20072;-50
2021/10/26 09:39:10;;;;;;;12.52;5.38;;;;;;;26.54;34.50;99440.94;5010698;28;20491;-49
2021/10/26 09:41:58;;;;;;;52.08;7.75;;;;;;;25.27;36.24;99440.97;5010680;28;20038;-49
2021/10/26 09:44:28;;;;;;;24.23;5.68;;;;;;;24.26;37.84;99446.47;5010652;28;20108;-49
2021/10/26 09:47:02;;;;;;;15.70;4.20;;;;;;;23.83;38.89;99446.00;5051943;28;20044;-50
2021/10/26 09:49:37;;;;;;;15.50;4.80;;;;;;;23.40;38.90;99440.06;5056419;28;20096;-49
2021/10/26 09:52:11;;;;;;;;;;;;;;;22.74;39.66;99444.94;5052370;28;20056;-49
2021/10/26 09:54:42;;;;;;;10.05;3.22;;;;;;;22.25;41.28;99441.75;5052328;28;20291;-49
2021/10/26 09:57:10;;;;;;;16.02;4.68;;;;;;;21.92;41.83;99444.47;5052084;28;20075;-48
2021/10/26 09:59:45;;;;;;;11.07;3.30;;;;;;;21.52;42.72;99455.63;5052191;28;20099;-47
2021/10/26 10:02:21;;;;;;;9.07;3.42;;;;;;;21.04;43.75;99449.22;5052187;28;20032;-49
2021/10/26 10:04:47;;;;;;;15.50;3.42;;;;;;;20.57;44.90;99447.06;5052110;28;20091;-48
2021/10/26 10:07:13;;;;;;;16.58;3.30;;;;;;;20.17;45.86;99445.44;5051359;28;20021;-49
2021/10/26 10:09:39;;;;;;;15.35;3.40;;;;;;;19.70;46.99;99443.91;5051961;28;20017;-49
2021/10/26 10:12:08;;;;;;;15.68;3.28;;;;;;;19.28;48.29;99449.56;5051884;28;20028;-49
2021/10/26 10:14:41;;;;;;;12.15;3.72;;;;;;;19.03;49.12;99458.66;5051939;28;20055;-49
2021/10/26 10:17:09;;;;;;;10.48;3.58;;;;;;;18.88;49.79;99461.84;5051923;28;20020;-49
2021/10/26 10:19:36;;;;;;;11.52;3.88;;;;;;;18.91;49.95;99458.72;5051908;28;20029;-48
2021/10/26 10:22:07;;;;;;;11.05;3.88;;;;;;;18.87;50.19;99460.22;5051718;28;20025;-49
2021/10/26 10:24:41;;;;;;;8.55;3.00;;;;;;;18.89;50.52;99460.78;5052147;28;20032;-49
2021/10/26 10:27:08;;;;;;;8.35;2.95;;;;;;;19.23;50.36;99454.78;5051767;28;20024;-49
2021/10/26 10:29:35;;;;;;;8.15;3.05;;;;;;;20.49;47.85;99453.63;5051681;28;20036;-49
2021/10/26 10:32:02;;;;;;;9.50;3.20;;;;;;;21.38;45.59;99444.50;5051646;28;20021;-48
2021/10/26 10:34:29;;;;;;;18.58;4.05;;;;;;;22.24;43.93;99443.63;5034044;28;20112;-49
2021/10/26 10:36:58;;;;;;;17.38;4.22;;;;;;;23.15;42.02;99446.19;5051609;28;20017;-49
2021/10/26 10:39:34;;;;;;;9.18;3.47;;;;;;;23.50;41.25;99438.22;5050467;28;20507;-49
2021/10/26 10:42:14;;;;;;;9.88;3.30;;;;;;;23.81;40.81;99435.53;5051639;28;20063;-49
2021/10/26 10:44:41;;;;;;;10.07;3.38;;;;;;;24.33;38.99;99445.13;5051575;28;20095;-49
2021/10/26 10:47:12;;;;;;;16.88;4.07;;;;;;;24.21;39.19;99439.25;5051537;28;20074;-49
2021/10/26 10:49:37;;;;;;;9.77;3.13;;;;;;;24.00;38.95;99438.47;5051621;28;20037;-49
2021/10/26 10:52:18;;;;;;;45.55;6.68;;;;;;;23.25;40.54;99447.00;5051123;28;20053;-49
2021/10/26 10:54:54;;;;;;;31.73;4.80;;;;;;;22.65;41.55;99445.72;5051393;28;20029;-47
2021/10/26 10:57:35;;;;;;;20.25;3.97;;;;;;;22.14;42.36;99435.53;5051441;28;20033;-49
2021/10/26 11:00:15;;;;;;;13.00;3.00;;;;;;;21.87;43.49;99431.06;5051474;28;20056;-48
2021/10/26 11:02:42;;;;;;;9.13;3.28;;;;;;;22.05;43.51;99432.50;5051342;28;20029;-49
2021/10/26 11:05:30;;;;;;;6.80;3.03;;;;;;;21.97;43.25;99422.31;5051423;28;20100;-48
2021/10/26 11:07:58;;;;;;;6.35;3.30;;;;;;;21.88;43.74;99427.31;5051234;28;20070;-48
2021/10/26 11:10:23;;;;;;;11.68;4.10;;;;;;;22.46;42.90;99414.06;5033424;28;20044;-49
2021/10/26 11:12:52;;;;;;;9.05;3.60;;;;;;;22.47;43.02;99415.66;5051251;28;20529;-48
2021/10/26 11:15:44;;;;;;;11.10;3.90;;;;;;;22.72;42.73;99412.31;5051275;28;20021;-48
2021/10/26 11:18:10;;;;;;;9.90;3.85;;;;;;;23.16;42.50;99405.75;5035617;28;20142;-48
2021/10/26 11:20:40;;;;;;;8.32;3.55;;;;;;;24.43;40.11;99403.25;5055139;28;20036;-47
2021/10/26 11:23:14;;;;;;;11.82;4.03;;;;;;;25.39;37.95;99403.81;5055124;28;20033;-49
2021/10/26 11:25:45;;;;;;;25.48;4.85;;;;;;;25.57;37.10;99396.16;5055266;28;20044;-49
2021/10/26 11:28:18;;;;;;;17.98;4.22;;;;;;;25.04;37.34;99405.63;5055064;28;20078;-48
2021/10/26 11:30:55;;;;;;;10.43;3.05;;;;;;;24.70;38.65;99394.81;5054994;28;20028;-48
2021/10/26 11:33:24;;;;;;;12.13;3.30;;;;;;;25.38;37.16;99383.41;5054841;28;20053;-49
2021/10/26 11:35:59;;;;;;;10.75;3.53;;;;;;;26.08;36.63;99377.69;5054757;28;20103;-49